Nearby METAR Reports

 

KEDC - Austin Exec, Texas, USA
Distance from station: SSE 10mi, 17km
Updated: Mon, 25-Jun-2018 12:55am CDT
Overcast
Overcast
 Wind from SSE
Wind: SSE 10 mph , 17 km/h
Temperature: 79°F , 26°C
Dew Point: 75°F , 24°C
Humidity: 89%
Barometer: 29.94 inHg , 1013.9 hPa
Clouds: Overcast
Visibility: 10 miles , 16 km
Cloud details: Mostly cloudy 1800 ft
Mostly cloudy 2300 ft
Overcast 2800 ft
2018/06/25 05:55 KEDC 250555Z AUTO 16009KT 10SM BKN018 BKN023 OVC028 26/24 A2994 RMK AO2
KGTU - Georgetown, Texas, USA
Distance from station: NNW 11mi, 17km
Updated: Mon, 25-Jun-2018 12:56am CDT
Few Clouds
Few Clouds
 Wind from SSE
Wind: SSE 13 mph , 20 km/h, Gust: 20 mph , 31 km/h
Temperature: 81°F , 27°C
Heat Index: 86°F , 30°C
Dew Point: 73°F , 23°C
Humidity: 79%
Barometer: 29.94 inHg , 1013.9 hPa
Clouds: Few Clouds
Visibility: 10 miles , 16 km
Cloud details: Few Clouds 2000 ft
2018/06/25 05:56 KGTU 250556Z AUTO 16011G17KT 10SM FEW020 27/23 A2994 RMK AO2 SLP129 T02670228 10339 20267 403610261 50015
 
KATT - Austin/Mabry, Texas, USA
Distance from station: SSW 18mi, 30km
Updated: Mon, 25-Jun-2018 12:51am CDT
Mostly cloudy
Mostly cloudy
 Wind from SSE
Wind: SSE 8 mph , 13 km/h
Temperature: 81°F , 27°C
Heat Index: 85°F , 29°C
Dew Point: 72°F , 22°C
Humidity: 74%
Barometer: 29.94 inHg , 1013.9 hPa
Clouds: Mostly cloudy
Visibility: 10 miles , 16 km
Cloud details: Mostly cloudy 3000 ft
2018/06/25 05:51 KATT 250551Z AUTO 16007KT 10SM BKN030 27/22 A2994 RMK AO2 SLP123 T02720217 10344 20272 403780256 51022 $
KRYW - Lago Vista, Texas, USA
Distance from station: W 22mi, 35km
Updated: Mon, 25-Jun-2018 12:55am CDT
Overcast
Overcast
 Wind from SSE
Wind: SSE 7 mph , 11 km/h, Gust: 16 mph , 26 km/h
Temperature: 79°F , 26°C
Dew Point: 73°F , 23°C
Humidity: 84%
Barometer: 29.95 inHg , 1014.2 hPa
Clouds: Overcast
Visibility: 10 miles , 16 km
Cloud details: Mostly cloudy 1600 ft
Overcast 2400 ft
2018/06/25 05:55 KRYW 250555Z AUTO 16006G14KT 10SM BKN016 OVC024 26/23 A2995 RMK AO2 T02630229 10335 20263 403620250
 
KAUS - Austin, Texas, USA
Distance from station: S 25mi, 41km
Updated: Mon, 25-Jun-2018 12:53am CDT
Mostly cloudy
Mostly cloudy
 Wind from SSE
Wind: SSE 10 mph , 17 km/h
Temperature: 79°F , 26°C
Dew Point: 73°F , 23°C
Humidity: 84%
Barometer: 29.93 inHg , 1013.5 hPa
Clouds: Mostly cloudy
Visibility: 10 miles , 16 km
Cloud details: Partly cloudy 2100 ft
Mostly cloudy 3200 ft
2018/06/25 05:53 KAUS 250553Z 15009KT 10SM SCT021 BKN032 26/23 A2993 RMK AO2 SLP122 T02610228 10344 20261 403720250 51021 $
KILE - Killeen Muni, Texas, USA
Distance from station: N 36mi, 58km
Updated: Mon, 25-Jun-2018 12:56am CDT
Clear
Clear
 Wind from SSE
Wind: SSE 16 mph , 26 km/h, Gust: 22 mph , 35 km/h
Temperature: 79°F , 26°C
Dew Point: 72°F , 22°C
Humidity: 79%
Barometer: 29.90 inHg , 1012.5 hPa
Clouds: Clear
Visibility: 10 miles , 16 km
2018/06/25 05:56 KILE 250556Z AUTO 16014G19KT 10SM CLR 26/22 A2990 RMK AO2 SLP124 T02610222 10339 20261 403610256 50004
 
KGRK - Gray/Ft Hood, Texas, USA
Distance from station: NNW 38mi, 62km
Updated: Mon, 25-Jun-2018 12:58am CDT
Clear
Clear
 Wind from SSE
Wind: SSE 15 mph , 24 km/h, Gust: 24 mph , 39 km/h
Temperature: 79°F , 26°C
Dew Point: 70°F , 21°C
Humidity: 74%
Barometer: 29.89 inHg , 1012.2 hPa
Clouds: Clear
Visibility: 10 miles , 16 km
2018/06/25 05:58 KGRK 250558Z AUTO 15013G21KT 10SM CLR 26/21 A2989 RMK AO2 SLP108 T02590214 10340 20259 403640251 50005
KBMQ - Burnet, Texas, USA
Distance from station: WNW 39mi, 64km
Updated: Mon, 25-Jun-2018 12:53am CDT
Few Clouds
Few Clouds
 Wind from SSE
Wind: SSE 9 mph , 15 km/h, Gust: 21 mph , 33 km/h
Temperature: 79°F , 26°C
Dew Point: 72°F , 22°C
Humidity: 79%
Barometer: 29.94 inHg , 1013.9 hPa
Clouds: Few Clouds
Visibility: 10 miles , 16 km
Cloud details: Few Clouds 2100 ft
Few Clouds 2900 ft
2018/06/25 05:53 KBMQ 250553Z AUTO 16008G18KT 10SM FEW021 FEW029 26/22 A2994 RMK AO2 SLP118 T02610222 10339 20261 403610244 50014
 
KHLR - Ft Hood/Killeen, Texas, USA
Distance from station: N 41mi, 66km
Updated: Mon, 25-Jun-2018 12:58am CDT
Few Clouds
Few Clouds
 Wind from S
Wind: S 16 mph , 26 km/h, Gust: 23 mph , 37 km/h
Temperature: 79°F , 26°C
Dew Point: 72°F , 22°C
Humidity: 79%
Barometer: 29.86 inHg , 1011.2 hPa
Clouds: Few Clouds
Visibility: 10 miles , 16 km
Cloud details: Few Clouds 1900 ft
2018/06/25 05:58 KHLR 250558Z AUTO 17014G20KT 10SM FEW019 26/22 A2986 RMK AO2 SLP098 T02620216 10337 20262 403600252 50005
KTPL - Temple/Miller, Texas, USA
Distance from station: NNE 42mi, 68km
Updated: Mon, 25-Jun-2018 12:51am CDT
Clear
Clear
 Wind from SSE
Wind: SSE 14 mph , 22 km/h
Temperature: 81°F , 27°C
Heat Index: 86°F , 30°C
Dew Point: 73°F , 23°C
Humidity: 79%
Barometer: 29.91 inHg , 1012.9 hPa
Clouds: Clear
Visibility: 10 miles , 16 km
2018/06/25 05:51 KTPL 250551Z AUTO 15012KT 10SM CLR 27/23 A2991 RMK AO2 SLP125 T02670228 10339 20267 403670250 51006
 
KT35 - Cameron, Texas, USA
Distance from station: ENE 45mi, 72km
Updated: Mon, 25-Jun-2018 12:55am CDT
Clear
Clear
 Wind from SSE
Wind: SSE 14 mph , 22 km/h, Gust: 26 mph , 43 km/h
Temperature: 81°F , 27°C
Heat Index: 86°F , 30°C
Dew Point: 73°F , 23°C
Humidity: 79%
Barometer: 29.91 inHg , 1012.9 hPa
Clouds: Clear
Visibility: 10 miles , 16 km
2018/06/25 05:55 KT35 250555Z AUTO 16012G23KT 10SM CLR 27/23 A2991 RMK AO2 T02670230 10336 20267 403600257
KDZB - Horseshoe Bay, Texas, USA
Distance from station: W 45mi, 73km
Updated: Mon, 25-Jun-2018 12:55am CDT
Mostly cloudy
Mostly cloudy
 Wind from SSE
Wind: SSE 8 mph , 13 km/h
Temperature: 79°F , 26°C
Dew Point: 70°F , 21°C
Humidity: 74%
Barometer: 29.93 inHg , 1013.5 hPa
Clouds: Mostly cloudy
Visibility: 10 miles , 16 km
Cloud details: Mostly cloudy 2400 ft
2018/06/25 05:55 KDZB 250555Z AUTO 16007KT 10SM BKN024 26/21 A2993 RMK AO2 T02610210 10346 20261 403700245
 
KGYB - Giddings-Lee, Texas, USA
Distance from station: SE 45mi, 73km
Updated: Mon, 25-Jun-2018 12:55am CDT
Overcast
Overcast
 Wind from SSE
Wind: SSE 8 mph , 13 km/h
Temperature: 79°F , 26°C
Dew Point: 73°F , 23°C
Humidity: 84%
Barometer: 29.95 inHg , 1014.2 hPa
Clouds: Overcast
Visibility: 10 miles , 16 km
Cloud details: Partly cloudy 1700 ft
Mostly cloudy 2300 ft
Overcast 3300 ft
2018/06/25 05:55 KGYB 250555Z AUTO 16007KT 10SM SCT017 BKN023 OVC033 26/23 A2995 RMK AO2 T02600226 10322 20258 403390232
KHYI - San Marcos, Texas, USA
Distance from station: SSW 48mi, 78km
Updated: Mon, 25-Jun-2018 12:56am CDT
Overcast
Overcast
 Wind from SSE
Wind: SSE 12 mph , 19 km/h
Temperature: 81°F , 27°C
Heat Index: 86°F , 30°C
Dew Point: 73°F , 23°C
Humidity: 79%
Barometer: 29.94 inHg , 1013.9 hPa
Clouds: Overcast
Visibility: 10 miles , 16 km
Cloud details: Overcast 1600 ft
2018/06/25 05:56 KHYI 250556Z AUTO 15010KT 10SM OVC016 27/23 A2994 RMK AO2 SLP129 T02670233 10328 20261 403610250 51016 $
 
KLZZ - Lampasas, Texas, USA
Distance from station: NW 52mi, 84km
Updated: Mon, 25-Jun-2018 12:55am CDT
Clear
Clear
 Wind from S
Wind: S 12 mph , 19 km/h
Temperature: 79°F , 26°C
Dew Point: 70°F , 21°C
Humidity: 74%
Barometer: 29.89 inHg , 1012.2 hPa
Clouds: Clear
Visibility: 10 miles , 16 km
2018/06/25 05:55 KLZZ 250555Z AUTO 17010KT 10SM CLR 26/21 A2989 RMK AO2 T02590210 10339 20259 403640243
KRWV - Caldwell, Texas, USA
Distance from station: E 54mi, 87km
Updated: Mon, 25-Jun-2018 12:55am CDT
Overcast
Overcast
 Wind from S
Wind: S 12 mph , 19 km/h
Temperature: 79°F , 26°C
Dew Point: 73°F , 23°C
Humidity: 84%
Barometer: 29.95 inHg , 1014.2 hPa
Clouds: Overcast
Visibility: 10 miles , 16 km
Cloud details: Mostly cloudy 1900 ft
Overcast 2600 ft
2018/06/25 05:55 KRWV 250555Z AUTO 17010KT 10SM BKN019 OVC026 26/23 A2995 RMK AO2 T02600232 10321 20259
 
K3T5 - La Grange, Texas, USA
Distance from station: SE 59mi, 95km
Updated: Mon, 25-Jun-2018 12:55am CDT
Overcast
Overcast
 Wind from SSE
Wind: SSE 8 mph , 13 km/h
Temperature: 81°F , 27°C
Heat Index: 88°F , 31°C
Dew Point: 77°F , 25°C
Humidity: 89%
Barometer: 29.92 inHg , 1013.2 hPa
Clouds: Overcast
Visibility: 10 miles , 16 km
Cloud details: Overcast 1800 ft
2018/06/25 05:55 K3T5 250555Z AUTO 16007KT 10SM OVC018 27/25 A2992 RMK AO2 T02700248 10328 20270 403490256
KGOP - Gatesville, Texas, USA
Distance from station: N 61mi, 99km
Updated: Mon, 25-Jun-2018 12:55am CDT
Clear
Clear
 Wind from SSE
Wind: SSE 13 mph , 20 km/h, Gust: 20 mph , 31 km/h
Temperature: 81°F , 27°C
Heat Index: 85°F , 29°C
Dew Point: 72°F , 22°C
Humidity: 74%
Barometer: 29.91 inHg , 1012.9 hPa
Clouds: Clear
Visibility: 10 miles , 16 km
2018/06/25 05:55 KGOP 250555Z AUTO 15011G17KT 10SM CLR 27/22 A2991 RMK AO2
 
KLHB - Hearne Muni, Texas, USA
Distance from station: ENE 63mi, 101km
Updated: Mon, 25-Jun-2018 12:55am CDT
Partly cloudy
Partly cloudy
 Wind from SE
Wind: SE 10 mph , 17 km/h
Temperature: 79°F , 26°C
Dew Point: 73°F , 23°C
Humidity: 84%
Barometer: 29.94 inHg , 1013.9 hPa
Clouds: Partly cloudy
Visibility: 10 miles , 16 km
Cloud details: Partly cloudy 1900 ft
2018/06/25 05:55 KLHB 250555Z AUTO 14009KT 10SM SCT019 26/23 A2994 RMK AO2 T02600231 10325 20260 403430251
KBAZ - New Braunfels, Texas, USA
Distance from station: SSW 63mi, 102km
Updated: Mon, 25-Jun-2018 12:51am CDT
Overcast
Overcast
 Wind from SSE
Wind: SSE 13 mph , 20 km/h
Temperature: 81°F , 27°C
Heat Index: 86°F , 30°C
Dew Point: 73°F , 23°C
Humidity: 79%
Barometer: 29.92 inHg , 1013.2 hPa
Clouds: Overcast
Visibility: 10 miles , 16 km
Cloud details: Mostly cloudy 1800 ft
Mostly cloudy 2600 ft
Overcast 3600 ft
2018/06/25 05:51 KBAZ 250551Z AUTO 16011KT 10SM BKN018 BKN026 OVC036 27/23 A2992 RMK AO2 SLP122 T02670228 10333 20267 403670244 51014